Time;durP1;ratioP1;P1;durP2;ratioP2;P2;SDS_P1;SDS_P2;PMS_P1;PMS_P2;Temp;Humidity;BMP_temperature;BMP_pressure;BME280_temperature;BME280_humidity;BME280_pressure;Samples;Min_cycle;Max_cycle;Signal;HPM_P1;HPM_P2
2023/09/17 00:00:35;;;;;;;;;;;;;;;21.92;29.82;98539.06;5034802;28;886;-78
2023/09/17 00:03:01;;;;;;;;;;;;;;;21.79;29.88;98536.84;5034910;28;1902;-77
2023/09/17 00:05:27;;;;;;;;;;;;;;;21.70;30.13;98539.44;5018971;28;1008;-77
2023/09/17 00:07:52;;;;;;;;;;;;;;;21.76;29.79;98536.91;5018466;28;935;-77
2023/09/17 00:10:18;;;;;;;;;;;;;;;21.80;29.96;98535.63;5035568;28;910;-78
2023/09/17 00:12:43;;;;;;;;;;;;;;;21.62;29.80;98529.50;5050869;28;1549;-77
2023/09/17 00:15:09;;;;;;;;;;;;;;;21.69;29.70;98532.19;5017823;28;1262;-77
2023/09/17 00:17:35;;;;;;;;;;;;;;;21.91;29.50;98528.94;5016755;28;1170;-77
2023/09/17 00:20:01;;;;;;;;;;;;;;;22.02;29.19;98526.69;5033157;28;1515;-77
2023/09/17 00:22:26;;;;;;;;;;;;;;;21.91;29.57;98526.91;5033371;28;1983;-78
2023/09/17 00:24:52;;;;;;;;;;;;;;;21.76;29.74;98520.75;5016775;28;991;-78
2023/09/17 00:27:17;;;;;;;;;;;;;;;21.91;29.48;98511.94;5033298;28;1226;-77
2023/09/17 00:29:43;;;;;;;;;;;;;;;21.75;29.66;98516.28;5017099;28;1090;-77
2023/09/17 00:32:08;;;;;;;;;;;;;;;21.90;29.38;98513.19;5016516;28;968;-77
2023/09/17 00:34:34;;;;;;;;;;;;;;;21.81;29.68;98511.75;5033108;28;1102;-78
2023/09/17 00:37:00;;;;;;;;;;;;;;;21.78;30.07;98504.09;5033410;28;1313;-77
2023/09/17 00:39:26;;;;;;;;;;;;;;;21.94;29.50;98506.22;5016667;28;1111;-77
2023/09/17 00:41:52;;;;;;;;;;;;;;;22.12;29.40;98510.75;5000772;28;1234;-77
2023/09/17 00:44:17;;;;;;;;;;;;;;;21.85;29.97;98501.13;5036911;28;1914;-78
2023/09/17 00:46:43;;;;;;;;;;;;;;;21.80;30.06;98493.13;5020334;28;1227;-77
2023/09/17 00:49:13;;;;;;;;;;;;;;;21.84;29.73;98498.72;5020319;28;1123;-77
2023/09/17 00:51:39;;;;;;;;;;;;;;;22.03;29.32;98500.78;5021200;28;1131;-77
2023/09/17 00:54:04;;;;;;;;;;;;;;;22.00;29.58;98500.84;5020666;28;970;-77
2023/09/17 00:56:30;;;;;;;;;;;;;;;21.70;29.70;98494.13;5021453;28;1134;-78
2023/09/17 00:58:55;;;;;;;;;;;;;;;21.79;29.65;98502.06;5021590;28;1204;-78
2023/09/17 01:01:21;;;;;;;;;;;;;;;21.95;29.50;98487.19;5037689;28;949;-77
2023/09/17 01:03:47;;;;;;;;;;;;;;;21.71;29.56;98492.91;5037549;28;1981;-78
2023/09/17 01:06:12;;;;;;;;;;;;;;;21.82;29.51;98496.34;5021147;28;1003;-77
2023/09/17 01:08:40;;;;;;;;;;;;;;;21.70;29.52;98494.13;5037665;28;1323;-78
2023/09/17 01:11:07;;;;;;;;;;;;;;;21.72;29.62;98496.56;5005193;28;1106;-77
2023/09/17 01:13:34;;;;;;;;;;;;;;;22.14;28.80;98489.25;5037342;28;1368;-77
2023/09/17 01:15:59;;;;;;;;;;;;;;;22.03;29.06;98485.81;5040863;28;1068;-78
2023/09/17 01:18:27;;;;;;;;;;;;;;;22.23;28.47;98485.84;5023491;28;1179;-78
2023/09/17 01:21:05;;;;;;;;;;;;;;;22.05;28.98;98486.16;5041301;28;1020;-77
2023/09/17 01:23:36;;;;;;;;;;;;;;;22.03;29.04;98485.81;5040463;28;1971;-77
2023/09/17 01:26:12;;;;;;;;;;;;;;;22.15;28.85;98490.84;5040889;28;1221;-78
2023/09/17 01:28:38;;;;;;;;;;;;;;;21.99;28.97;98488.72;5058661;28;974;-77
2023/09/17 01:31:05;;;;;;;;;;;;;;;22.15;28.61;98490.84;5040816;28;1118;-77
2023/09/17 01:33:30;;;;;;;;;;;;;;;22.00;28.93;98478.19;5057516;28;914;-78
2023/09/17 01:36:01;;;;;;;;;;;;;;;22.01;28.99;98476.94;5040493;28;1194;-78
2023/09/17 01:38:30;;;;;;;;;;;;;;;22.01;28.98;98474.91;5040553;28;1110;-77
2023/09/17 01:40:56;;;;;;;;;;;;;;;22.04;28.91;98474.03;5055701;28;984;-78
2023/09/17 01:43:23;;;;;;;;;;;;;;;21.93;29.07;98473.47;5038938;28;1918;-77
2023/09/17 01:45:48;;;;;;;;;;;;;;;21.90;28.97;98470.69;5055859;28;1001;-78
2023/09/17 01:48:15;;;;;;;;;;;;;;;21.87;28.90;98469.53;5055802;28;1049;-78
2023/09/17 01:50:41;;;;;;;;;;;;;;;21.99;28.93;98465.25;5022740;28;1345;-77
2023/09/17 01:53:06;;;;;;;;;;;;;;;21.97;28.97;98462.84;5055080;28;1113;-77
2023/09/17 01:55:32;;;;;;;;;;;;;;;22.07;28.57;98466.69;5014663;28;980;-78
2023/09/17 01:57:58;;;;;;;;;;;;;;;21.93;29.07;98470.63;4999334;28;1132;-78
2023/09/17 02:00:24;;;;;;;;;;;;;;;21.98;28.99;98469.31;5015648;28;1103;-78
2023/09/17 02:02:51;;;;;;;;;;;;;;;21.99;29.03;98473.75;4999286;28;1906;-77
2023/09/17 02:05:17;;;;;;;;;;;;;;;21.91;28.82;98466.63;4999465;28;1258;-77
2023/09/17 02:07:43;;;;;;;;;;;;;;;21.95;29.11;98473.03;5015715;28;1176;-77
2023/09/17 02:10:09;;;;;;;;;;;;;;;21.67;29.17;98475.19;5015359;28;924;-77
2023/09/17 02:12:34;;;;;;;;;;;;;;;21.81;29.18;98466.41;5014554;28;1166;-77
2023/09/17 02:15:00;;;;;;;;;;;;;;;21.88;29.08;98465.47;4986551;28;1177;-77
2023/09/17 02:17:25;;;;;;;;;;;;;;;21.78;29.40;98472.16;5018940;28;1239;-77
2023/09/17 02:19:51;;;;;;;;;;;;;;;21.96;28.95;98460.44;5018960;28;1013;-77
2023/09/17 02:22:16;;;;;;;;;;;;;;;21.88;28.94;98464.69;5018575;28;1906;-77
2023/09/17 02:24:42;;;;;;;;;;;;;;;21.92;28.97;98468.25;5018482;28;1494;-77
2023/09/17 02:27:08;;;;;;;;;;;;;;;21.71;29.65;98470.25;5051900;28;949;-77
2023/09/17 02:29:34;;;;;;;;;;;;;;;21.81;29.50;98472.09;5056458;28;806;-77
2023/09/17 02:32:00;;;;;;;;;;;;;;;21.74;29.67;98466.53;5039589;28;857;-77
2023/09/17 02:34:25;;;;;;;;;;;;;;;21.70;29.40;98471.47;5039461;28;927;-77
2023/09/17 02:36:51;;;;;;;;;;;;;;;21.61;29.48;98468.44;5039327;28;1072;-77
2023/09/17 02:39:16;;;;;;;;;;;;;;;21.62;29.70;98475.69;5055823;28;1140;-77
2023/09/17 02:41:43;;;;;;;;;;;;;;;21.63;29.51;98471.63;5055969;28;1244;-77
2023/09/17 02:44:09;;;;;;;;;;;;;;;21.85;28.96;98472.00;5072659;28;1914;-78
2023/09/17 02:46:34;;;;;;;;;;;;;;;21.64;29.43;98473.22;5055689;28;1217;-78
2023/09/17 02:49:01;;;;;;;;;;;;;;;21.94;29.02;98468.59;5055629;28;1154;-77
2023/09/17 02:51:27;;;;;;;;;;;;;;;22.12;28.64;98469.03;5072238;28;1254;-78
2023/09/17 02:53:52;;;;;;;;;;;;;;;21.85;29.24;98478.47;5072436;28;1141;-78
2023/09/17 02:56:18;;;;;;;;;;;;;;;22.05;28.58;98474.84;5055671;28;1048;-77
2023/09/17 02:58:44;;;;;;;;;;;;;;;22.02;28.88;98470.03;5038948;28;1228;-77
2023/09/17 03:01:17;;;;;;;;;;;;;;;21.74;29.46;98477.06;5072248;28;1119;-77
2023/09/17 03:03:46;;;;;;;;;;;;;;;21.70;29.34;98477.13;5039049;28;1902;-77
2023/09/17 03:06:12;;;;;;;;;;;;;;;21.68;29.51;98484.50;5054769;28;943;-77
2023/09/17 03:08:41;;;;;;;;;;;;;;;21.92;28.89;98482.41;5037222;28;1256;-77
2023/09/17 03:11:10;;;;;;;;;;;;;;;21.82;28.90;98478.56;5037584;28;1214;-77
2023/09/17 03:13:36;;;;;;;;;;;;;;;21.88;28.80;98484.50;5037404;28;1308;-77
2023/09/17 03:16:04;;;;;;;;;;;;;;;21.94;28.89;98479.94;5038168;28;1207;-78
2023/09/17 03:18:30;;;;;;;;;;;;;;;21.78;29.24;98495.59;5021091;28;1070;-77
2023/09/17 03:20:56;;;;;;;;;;;;;;;21.78;28.97;98492.78;5020826;28;1163;-78
2023/09/17 03:23:21;;;;;;;;;;;;;;;21.84;29.15;98499.53;5037297;28;1914;-78
2023/09/17 03:25:47;;;;;;;;;;;;;;;21.75;29.03;98490.78;5036918;28;943;-77
2023/09/17 03:28:12;;;;;;;;;;;;;;;21.72;29.36;98494.50;5020777;28;1123;-77
2023/09/17 03:30:39;;;;;;;;;;;;;;;21.88;28.87;98487.34;5004574;28;1192;-76
2023/09/17 03:33:08;;;;;;;;;;;;;;;21.88;28.92;98493.00;5037413;28;1476;-77
2023/09/17 03:35:41;;;;;;;;;;;;;;;22.05;28.62;98486.16;4983861;28;1096;-78
2023/09/17 03:38:07;;;;;;;;;;;;;;;22.14;28.38;98485.63;4997634;28;1281;-78
2023/09/17 03:40:33;;;;;;;;;;;;;;;21.94;28.79;98491.25;5013492;28;1022;-77
2023/09/17 03:42:59;;;;;;;;;;;;;;;21.84;28.89;98493.88;4997669;28;1915;-77
2023/09/17 03:45:25;;;;;;;;;;;;;;;21.63;29.38;98499.94;5001748;28;1275;-77
2023/09/17 03:47:52;;;;;;;;;;;;;;;21.95;29.05;98493.66;4961908;28;1239;-78
2023/09/17 03:50:18;;;;;;;;;;;;;;;21.94;28.91;98503.38;4977858;28;1253;-77
2023/09/17 03:52:45;;;;;;;;;;;;;;;21.92;28.73;98499.41;4977994;28;1205;-77
2023/09/17 03:55:11;;;;;;;;;;;;;;;21.99;28.79;98493.59;4978246;28;1070;-78
2023/09/17 03:57:37;;;;;;;;;;;;;;;21.81;29.02;98506.09;4978088;28;1060;-77
2023/09/17 04:00:07;;;;;;;;;;;;;;;21.67;29.33;98499.88;4978048;28;1228;-77
2023/09/17 04:02:37;;;;;;;;;;;;;;;21.73;29.13;98503.81;4993827;28;1914;-78
2023/09/17 04:05:13;;;;;;;;;;;;;;;21.71;29.10;98501.41;4978060;28;1251;-77
2023/09/17 04:07:40;;;;;;;;;;;;;;;21.60;29.32;98503.63;4996983;28;1202;-78
2023/09/17 04:10:06;;;;;;;;;;;;;;;21.67;29.29;98505.56;5033379;28;1067;-77
2023/09/17 04:12:33;;;;;;;;;;;;;;;21.51;29.35;98509.09;4977938;28;1270;-78
2023/09/17 04:14:58;;;;;;;;;;;;;;;21.60;29.18;98506.47;4994130;28;1278;-77
2023/09/17 04:17:24;;;;;;;;;;;;;;;21.74;28.92;98511.88;4995161;28;1010;-77
2023/09/17 04:19:50;;;;;;;;;;;;;;;21.74;28.96;98500.53;5034317;28;951;-77
2023/09/17 04:22:16;;;;;;;;;;;;;;;21.89;28.63;98497.44;5004837;28;1914;-77
2023/09/17 04:24:42;;;;;;;;;;;;;;;21.74;29.08;98506.19;5004204;28;1147;-77
2023/09/17 04:27:08;;;;;;;;;;;;;;;21.78;28.90;98503.31;5037262;28;1347;-77
2023/09/17 04:29:34;;;;;;;;;;;;;;;21.97;28.24;98507.41;5020617;28;1625;-77
2023/09/17 04:31:59;;;;;;;;;;;;;;;21.81;28.56;98505.25;5020813;28;1118;-77
2023/09/17 04:34:25;;;;;;;;;;;;;;;21.56;29.09;98508.59;4987946;28;1320;-77
2023/09/17 04:36:51;;;;;;;;;;;;;;;21.50;29.19;98510.28;5020952;28;1244;-76
2023/09/17 04:39:17;;;;;;;;;;;;;;;21.61;29.03;98515.78;5020618;28;1096;-76
2023/09/17 04:41:43;;;;;;;;;;;;;;;21.66;28.59;98507.59;5020663;28;1251;-77
2023/09/17 04:44:10;;;;;;;;;;;;;;;21.67;28.79;98509.19;5035846;28;1976;-77
2023/09/17 04:46:39;;;;;;;;;;;;;;;21.97;28.38;98510.22;5040199;28;1169;-77
2023/09/17 04:49:06;;;;;;;;;;;;;;;21.68;28.78;98502.28;5024176;28;1157;-77
2023/09/17 04:51:33;;;;;;;;;;;;;;;21.69;28.83;98508.75;5023826;28;1208;-76
2023/09/17 04:53:58;;;;;;;;;;;;;;;21.85;28.61;98506.78;5040329;28;1247;-78
2023/09/17 04:56:24;;;;;;;;;;;;;;;21.72;28.76;98507.88;5023406;28;1573;-77
2023/09/17 04:58:51;;;;;;;;;;;;;;;21.95;28.28;98509.84;5053739;28;1052;-77
2023/09/17 05:01:16;;;;;;;;;;;;;;;21.93;28.60;98512.34;5058166;28;1071;-77
2023/09/17 05:03:43;;;;;;;;;;;;;;;21.39;29.23;98512.50;5039625;28;1985;-78
2023/09/17 05:06:08;;;;;;;;;;;;;;;21.64;29.21;98512.88;5056825;28;1024;-78
2023/09/17 05:08:34;;;;;;;;;;;;;;;21.63;29.10;98510.47;5040021;28;1252;-77
2023/09/17 05:11:01;;;;;;;;;;;;;;;21.77;29.09;98508.19;5040117;28;1145;-78
2023/09/17 05:13:27;;;;;;;;;;;;;;;21.65;29.09;98508.78;5039641;28;1126;-77
2023/09/17 05:15:53;;;;;;;;;;;;;;;21.63;29.31;98505.59;5039777;28;1218;-77
2023/09/17 05:18:19;;;;;;;;;;;;;;;21.65;29.36;98514.47;5039575;28;1105;-78
2023/09/17 05:20:48;;;;;;;;;;;;;;;21.72;29.24;98514.34;5039939;28;1325;-78
2023/09/17 05:23:13;;;;;;;;;;;;;;;21.77;29.00;98505.34;5039436;28;1903;-77
2023/09/17 05:25:39;;;;;;;;;;;;;;;22.04;28.61;98510.06;5000004;28;1283;-78
2023/09/17 05:28:09;;;;;;;;;;;;;;;21.65;29.53;98513.66;4983717;28;1114;-77
2023/09/17 05:30:35;;;;;;;;;;;;;;;21.54;29.64;98525.97;4984103;28;1202;-77
2023/09/17 05:33:01;;;;;;;;;;;;;;;21.92;28.94;98524.91;5000110;28;888;-78
2023/09/17 05:35:28;;;;;;;;;;;;;;;21.79;29.15;98525.53;5016184;28;1290;-78
2023/09/17 05:37:54;;;;;;;;;;;;;;;21.83;29.42;98526.25;5003287;28;1014;-77
2023/09/17 05:40:20;;;;;;;;;;;;;;;22.00;29.07;98526.34;5003011;28;1198;-77
2023/09/17 05:42:46;;;;;;;;;;;;;;;21.97;28.80;98528.03;5019545;28;1963;-78
2023/09/17 05:45:12;;;;;;;;;;;;;;;21.95;28.75;98518.34;5003118;28;1363;-77
2023/09/17 05:47:40;;;;;;;;;;;;;;;22.06;28.62;98521.75;4987354;28;1245;-77
2023/09/17 05:50:06;;;;;;;;;;;;;;;21.70;29.50;98522.44;5003017;28;1163;-77
2023/09/17 05:52:34;;;;;;;;;;;;;;;21.62;29.37;98523.03;4980532;28;1378;-77
2023/09/17 05:55:03;;;;;;;;;;;;;;;21.90;28.95;98524.53;4979658;28;1251;-78
2023/09/17 05:57:29;;;;;;;;;;;;;;;21.73;29.54;98530.09;4960551;28;1330;-77
2023/09/17 05:59:55;;;;;;;;;;;;;;;21.59;29.56;98521.84;4944947;28;1091;-77
2023/09/17 06:02:20;;;;;;;;;;;;;;;21.74;29.46;98522.41;4944416;28;1899;-77
2023/09/17 06:04:51;;;;;;;;;;;;;;;21.99;28.98;98525.56;4944844;28;1465;-78
2023/09/17 06:07:16;;;;;;;;;;;;;;;22.08;28.56;98524.97;4976636;28;991;-77
2023/09/17 06:09:42;;;;;;;;;;;;;;;21.71;29.54;98528.91;4960435;28;1160;-77
2023/09/17 06:12:07;;;;;;;;;;;;;;;21.80;29.21;98532.78;4976516;28;1268;-77
2023/09/17 06:14:33;;;;;;;;;;;;;;;21.60;29.74;98540.44;4976539;28;1115;-77
2023/09/17 06:16:59;;;;;;;;;;;;;;;21.75;29.36;98524.78;4976613;28;1302;-78
2023/09/17 06:19:27;;;;;;;;;;;;;;;21.56;29.82;98519.91;4976555;28;1128;-77
2023/09/17 06:21:53;;;;;;;;;;;;;;;21.62;29.74;98531.53;4976098;28;1059;-77
2023/09/17 06:24:19;;;;;;;;;;;;;;;21.87;29.69;98526.19;5007711;28;1989;-77
2023/09/17 06:26:44;;;;;;;;;;;;;;;22.02;29.29;98532.38;5015416;28;1141;-77
2023/09/17 06:29:11;;;;;;;;;;;;;;;21.91;29.89;98526.13;5018312;28;1091;-77
2023/09/17 06:31:37;;;;;;;;;;;;;;;21.90;30.11;98530.19;5018555;28;1119;-77
2023/09/17 06:34:02;;;;;;;;;;;;;;;21.68;30.31;98530.59;5034786;28;979;-77
2023/09/17 06:36:29;;;;;;;;;;;;;;;21.79;30.39;98531.19;5018814;28;1159;-78
2023/09/17 06:38:55;;;;;;;;;;;;;;;21.82;30.38;98536.00;5018004;28;1403;-77
2023/09/17 06:41:21;;;;;;;;;;;;;;;21.49;30.79;98531.34;5017495;28;1110;-77
2023/09/17 06:43:46;;;;;;;;;;;;;;;21.93;30.20;98535.00;5018308;28;2001;-78
2023/09/17 06:46:12;;;;;;;;;;;;;;;21.99;30.17;98538.91;5037159;28;865;-77
2023/09/17 06:48:37;;;;;;;;;;;;;;;21.97;30.33;98547.06;5054771;28;958;-77
2023/09/17 06:51:03;;;;;;;;;;;;;;;21.93;30.52;98552.00;5056315;28;1046;-77
2023/09/17 06:53:28;;;;;;;;;;;;;;;21.93;30.61;98544.28;5039007;28;954;-78
2023/09/17 06:55:54;;;;;;;;;;;;;;;22.00;30.54;98552.66;5034468;28;967;-78
2023/09/17 06:58:19;;;;;;;;;;;;;;;21.75;30.68;98547.44;5017807;28;971;-77
2023/09/17 07:00:46;;;;;;;;;;;;;;;21.90;30.68;98547.19;5017901;28;1151;-78
2023/09/17 07:03:12;;;;;;;;;;;;;;;22.16;30.39;98549.13;5034613;28;1902;-77
2023/09/17 07:05:37;;;;;;;;;;;;;;;22.19;30.38;98559.59;5017829;28;990;-78
2023/09/17 07:08:03;;;;;;;;;;;;;;;21.84;31.11;98550.53;5017418;28;934;-77
2023/09/17 07:10:29;;;;;;;;;;;;;;;21.97;30.97;98553.53;5018028;28;938;-78
2023/09/17 07:12:54;;;;;;;;;;;;;;;22.00;30.78;98546.19;5017523;28;1294;-78
2023/09/17 07:15:21;;;;;;;;;;;;;;;21.79;31.31;98547.38;5017874;28;1103;-78
2023/09/17 07:17:47;;;;;;;;;;;;;;;21.73;31.46;98549.94;5018167;28;1099;-77
2023/09/17 07:20:13;;;;;;;;;;;;;;;21.98;30.79;98560.00;5033825;28;953;-78
2023/09/17 07:22:39;;;;;;;;;;;;;;;21.81;31.08;98559.06;4978143;28;1991;-78
2023/09/17 07:25:05;;;;;;;;;;;;;;;22.11;30.57;98558.13;4994518;28;1217;-78
2023/09/17 07:27:31;;;;;;;;;;;;;;;22.14;30.50;98560.09;5024546;28;1020;-77
2023/09/17 07:29:57;;;;;;;;;;;;;;;22.21;30.20;98557.13;5017349;28;1033;-77
2023/09/17 07:32:28;;;;;;;;;;;;;;;21.88;30.85;98555.34;5017350;28;1034;-77
2023/09/17 07:34:54;;;;;;;;;;;;;;;21.88;31.20;98555.34;5017144;28;1070;-78
2023/09/17 07:37:20;;;;;;;;;;;;;;;22.06;31.03;98555.78;5034131;28;1041;-77
2023/09/17 07:39:52;;;;;;;;;;;;;;;22.15;30.63;98561.69;5033839;28;941;-77
2023/09/17 07:42:18;;;;;;;;;;;;;;;22.09;30.79;98560.59;5033702;28;1980;-78
2023/09/17 07:44:43;;;;;;;;;;;;;;;22.12;30.89;98554.06;5033911;28;1008;-79
2023/09/17 07:47:09;;;;;;;;;;;;;;;22.19;30.93;98559.59;5033894;28;997;-78
2023/09/17 07:49:36;;;;;;;;;;;;;;;21.81;31.49;98559.91;5033897;28;979;-78
2023/09/17 07:52:03;;;;;;;;;;;;;;;21.88;31.28;98555.34;5033637;28;942;-78
2023/09/17 07:54:30;;;;;;;;;;;;;;;22.01;30.94;98565.56;5017665;28;1011;-78
2023/09/17 07:56:55;;;;;;;;;;;;;;;22.09;31.09;98552.06;5033601;28;919;-78
2023/09/17 07:59:20;;;;;;;;;;;;;;;21.87;31.25;98554.53;5038085;28;1005;-77
2023/09/17 08:01:47;;;;;;;;;;;;;;;21.83;31.26;98548.94;5037902;28;1225;-77
2023/09/17 08:04:14;;;;;;;;;;;;;;;21.79;31.46;98551.03;5038228;28;1981;-77
2023/09/17 08:06:40;;;;;;;;;;;;;;;21.96;31.16;98539.78;5037841;28;1011;-77
2023/09/17 08:09:06;;;;;;;;;;;;;;;22.12;30.81;98548.38;5055735;28;903;-78
2023/09/17 08:11:31;;;;;;;;;;;;;;;22.17;30.50;98553.56;5038082;28;1554;-77
2023/09/17 08:13:57;;;;;;;;;;;;;;;22.20;30.71;98549.84;5052462;28;1117;-77
2023/09/17 08:16:24;;;;;;;;;;;;;;;22.18;30.55;98555.16;5052517;28;1059;-78
2023/09/17 08:18:49;;;;;;;;;;;;;;;22.01;30.87;98542.09;5052397;28;994;-77
2023/09/17 08:21:15;;;;;;;;;;;;;;;22.14;30.85;98543.09;5052164;28;1009;-77
2023/09/17 08:23:40;;;;;;;;;;;;;;;21.83;31.19;98537.59;5052263;28;1975;-77
2023/09/17 08:26:06;;;;;;;;;;;;;;;21.84;31.04;98544.06;5036058;28;1099;-77
2023/09/17 08:28:31;;;;;;;;;;;;;;;21.99;31.03;98551.06;5035323;28;909;-77
2023/09/17 08:30:57;;;;;;;;;;;;;;;22.09;30.61;98538.72;5035914;28;932;-77
2023/09/17 08:33:23;;;;;;;;;;;;;;;22.16;30.54;98543.44;5035722;28;972;-77
2023/09/17 08:35:48;;;;;;;;;;;;;;;22.23;30.50;98543.31;5035546;28;917;-78
2023/09/17 08:38:14;;;;;;;;;;;;;;;22.40;30.11;98535.69;5035382;28;1039;-78
2023/09/17 08:40:39;;;;;;;;;;;;;;;22.07;30.58;98541.19;5052216;28;975;-78
2023/09/17 08:43:05;;;;;;;;;;;;;;;22.20;30.45;98549.06;5035295;28;1890;-77
2023/09/17 08:45:31;;;;;;;;;;;;;;;22.04;30.66;98546.91;5049969;28;1126;-78
2023/09/17 08:47:57;;;;;;;;;;;;;;;22.01;30.70;98548.56;5038824;28;1079;-78
2023/09/17 08:50:22;;;;;;;;;;;;;;;21.81;31.20;98542.91;5032040;28;954;-78
2023/09/17 08:52:48;;;;;;;;;;;;;;;22.08;30.81;98559.78;5032181;28;1026;-77
2023/09/17 08:55:14;;;;;;;;;;;;;;;22.04;30.66;98553.38;4999232;28;1119;-77
2023/09/17 08:57:41;;;;;;;;;;;;;;;21.98;30.94;98545.81;4999343;28;1223;-77
2023/09/17 09:00:09;;;;;;;;;;;;;;;22.45;30.08;98540.03;5031800;28;992;-78
2023/09/17 09:02:47;;;;;;;;;;;;;;;22.16;30.53;98539.81;5015280;28;1902;-77
2023/09/17 09:05:14;;;;;;;;;;;;;;;22.25;30.32;98529.50;5002179;28;1245;-77
2023/09/17 09:07:41;;;;;;;;;;;;;;;22.46;29.95;98530.28;5002743;28;987;-78
2023/09/17 09:10:06;;;;;;;;;;;;;;;22.18;30.53;98535.34;5018636;28;976;-77
2023/09/17 09:12:32;;;;;;;;;;;;;;;22.38;30.25;98531.66;4954718;28;1294575;-77
2023/09/17 09:14:57;;;;;;;;;;;;;;;22.10;30.62;98539.50;5028015;28;877;-77
2023/09/17 09:17:23;;;;;;;;;;;;;;;22.25;30.37;98540.84;5036406;28;966;-77
2023/09/17 09:19:48;;;;;;;;;;;;;;;22.33;30.11;98521.66;5020013;28;1010;-78
2023/09/17 09:22:14;;;;;;;;;;;;;;;22.16;30.85;98532.13;5053558;28;1018;-76
2023/09/17 09:24:46;;;;;;;;;;;;;;;22.23;30.39;98539.69;5039939;28;1918;-77
2023/09/17 09:27:12;;;;;;;;;;;;;;;22.23;30.39;98543.31;5040087;28;957;-77
2023/09/17 09:29:37;;;;;;;;;;;;;;;22.20;30.67;98537.72;5039765;28;1135;-77
2023/09/17 09:32:04;;;;;;;;;;;;;;;22.30;30.35;98542.38;5056514;28;1045;-77
2023/09/17 09:34:30;;;;;;;;;;;;;;;22.30;30.39;98531.03;5039815;28;1014;-77
2023/09/17 09:36:55;;;;;;;;;;;;;;;22.10;30.90;98550.84;5039797;28;879;-78
2023/09/17 09:39:21;;;;;;;;;;;;;;;22.37;30.12;98536.53;5025146;28;1099;-78
2023/09/17 09:41:47;;;;;;;;;;;;;;;22.38;30.22;98532.47;5040731;28;1373;-77
2023/09/17 09:44:13;;;;;;;;;;;;;;;22.40;30.23;98532.03;5058394;28;1902;-77
2023/09/17 09:46:38;;;;;;;;;;;;;;;22.01;30.68;98527.94;5040843;28;1259;-78
2023/09/17 09:49:04;;;;;;;;;;;;;;;22.22;30.43;98530.38;5057350;28;913;-77
2023/09/17 09:51:31;;;;;;;;;;;;;;;22.19;30.70;98530.47;5057060;28;922;-77
2023/09/17 09:53:57;;;;;;;;;;;;;;;22.03;31.23;98534.78;5040662;28;1192;-78
2023/09/17 09:56:27;;;;;;;;;;;;;;;22.28;30.57;98544.84;5057627;28;882;-77
2023/09/17 09:58:56;;;;;;;;;;;;;;;22.25;30.68;98529.50;5057085;28;881;-78
2023/09/17 10:01:22;;;;;;;;;;;;;;;22.06;30.82;98539.56;5040587;28;1150;-78
2023/09/17 10:03:48;;;;;;;;;;;;;;;22.28;30.66;98542.03;5056753;28;1981;-78
2023/09/17 10:06:13;;;;;;;;;;;;;;;22.33;30.51;98536.63;5038734;28;928;-78
2023/09/17 10:08:39;;;;;;;;;;;;;;;22.38;30.63;98543.81;5039176;28;1126;-78
2023/09/17 10:11:05;;;;;;;;;;;;;;;22.27;30.65;98532.69;5015622;28;1256;-77
2023/09/17 10:13:32;;;;;;;;;;;;;;;22.23;30.73;98537.66;4983069;28;1096;-77
2023/09/17 10:15:57;;;;;;;;;;;;;;;22.42;30.19;98540.91;4990704;28;2088;-78
2023/09/17 10:18:24;;;;;;;;;;;;;;;22.38;30.59;98532.47;4980219;28;965;-77
2023/09/17 10:20:51;;;;;;;;;;;;;;;22.40;30.47;98529.22;4980175;28;1031;-79
2023/09/17 10:23:16;;;;;;;;;;;;;;;22.22;30.65;98541.69;4980039;28;1907;-77
2023/09/17 10:25:42;;;;;;;;;;;;;;;22.45;30.46;98542.88;4979999;28;1490;-78
2023/09/17 10:28:07;;;;;;;;;;;;;;;22.23;30.89;98537.66;4979578;28;967;-77
2023/09/17 10:30:33;;;;;;;;;;;;;;;22.27;30.76;98537.56;4979660;28;899;-77
2023/09/17 10:32:59;;;;;;;;;;;;;;;22.03;31.35;98546.13;4979671;28;1465;-77
2023/09/17 10:35:24;;;;;;;;;;;;;;;21.97;31.37;98541.41;4979834;28;1360;-77
2023/09/17 10:37:50;;;;;;;;;;;;;;;22.10;30.92;98551.66;4994049;28;1034;-77
2023/09/17 10:40:15;;;;;;;;;;;;;;;22.13;31.06;98543.53;4999192;28;1000;-78
2023/09/17 10:42:41;;;;;;;;;;;;;;;22.05;31.14;98542.84;4999157;28;1898;-77
2023/09/17 10:45:10;;;;;;;;;;;;;;;22.20;30.70;98549.84;4998889;28;1009;-78
2023/09/17 10:47:39;;;;;;;;;;;;;;;22.11;31.07;98546.78;5001996;28;989;-77
2023/09/17 10:50:04;;;;;;;;;;;;;;;22.23;30.97;98543.31;5036073;28;1214;-78
2023/09/17 10:52:30;;;;;;;;;;;;;;;22.31;30.53;98541.13;5053123;28;1228;-78
2023/09/17 10:54:56;;;;;;;;;;;;;;;22.43;30.57;98528.31;5052862;28;1159;-78
2023/09/17 10:57:23;;;;;;;;;;;;;;;22.52;30.21;98537.03;5051563;28;1627;-77
2023/09/17 10:59:49;;;;;;;;;;;;;;;22.36;30.84;98541.41;5055178;28;1613;-77
2023/09/17 11:02:15;;;;;;;;;;;;;;;22.51;30.40;98521.25;5055673;28;1523;-78
2023/09/17 11:04:40;;;;;;;;;;;;;;;22.52;30.48;98542.72;5038044;28;1910;-77
2023/09/17 11:07:07;;;;;;;;;;;;;;;22.42;30.56;98532.41;5038757;28;1663;-77
2023/09/17 11:09:32;;;;;;;;;;;;;;;22.08;30.91;98539.16;5037928;28;1639;-77
2023/09/17 11:11:58;;;;;;;;;;;;;;;22.50;30.47;98531.00;5039144;28;1067;-78
2023/09/17 11:14:23;;;;;;;;;;;;;;;22.36;30.71;98532.91;5039517;28;1083;-78
2023/09/17 11:16:49;;;;;;;;;;;;;;;22.36;30.39;98535.75;5056853;28;982;-78
2023/09/17 11:19:19;;;;;;;;;;;;;;;22.54;30.23;98534.56;5056796;28;928;-77
2023/09/17 11:21:48;;;;;;;;;;;;;;;22.30;30.55;98543.16;5039468;28;1131;-79
2023/09/17 11:24:13;;;;;;;;;;;;;;;22.03;31.31;98545.31;5056636;28;1906;-77
2023/09/17 11:26:40;;;;;;;;;;;;;;;22.30;30.84;98546.00;5055471;28;1161;-77
2023/09/17 11:29:06;;;;;;;;;;;;;;;22.39;30.82;98555.97;5038791;28;965;-78
2023/09/17 11:31:35;;;;;;;;;;;;;;;22.43;30.74;98539.66;5017367;28;1344;-77
2023/09/17 11:34:08;;;;;;;;;;;;;;;22.46;30.54;98544.47;5017836;28;1071;-77
2023/09/17 11:36:35;;;;;;;;;;;;;;;22.32;30.72;98556.91;5001871;28;1122;-77
2023/09/17 11:39:04;;;;;;;;;;;;;;;22.13;31.02;98558.50;5017663;28;905;-77
2023/09/17 11:41:35;;;;;;;;;;;;;;;22.29;30.96;98552.13;5018024;28;908;-77
2023/09/17 11:44:03;;;;;;;;;;;;;;;22.17;31.01;98550.72;5034229;28;1914;-78
2023/09/17 11:46:29;;;;;;;;;;;;;;;22.18;30.79;98558.00;5018033;28;1146;-77
2023/09/17 11:48:54;;;;;;;;;;;;;;;22.04;31.04;98542.03;5017310;28;985;-77
2023/09/17 11:51:24;;;;;;;;;;;;;;;21.92;31.28;98544.75;5017642;28;1041;-77
2023/09/17 11:53:49;;;;;;;;;;;;;;;22.20;30.90;98546.22;5017333;28;969;-78
2023/09/17 11:56:15;;;;;;;;;;;;;;;22.10;30.96;98545.16;5033731;28;996;-77
2023/09/17 11:58:42;;;;;;;;;;;;;;;22.27;30.72;98527.03;5017310;28;899;-77
2023/09/17 12:01:07;;;;;;;;;;;;;;;22.24;30.77;98539.25;5034202;28;963;-77
2023/09/17 12:03:33;;;;;;;;;;;;;;;22.03;30.97;98540.44;5052048;28;1977;-77
2023/09/17 12:05:59;;;;;;;;;;;;;;;21.76;31.61;98537.75;5054978;28;1533;-78
2023/09/17 12:08:24;;;;;;;;;;;;;;;22.21;30.70;98537.28;5053287;28;1253;-78
2023/09/17 12:11:06;;;;;;;;;;;;;;;22.21;30.76;98528.78;5054473;28;1463;-77
2023/09/17 12:13:38;;;;;;;;;;;;;;;22.39;30.27;98533.28;5055103;28;1235;-78
2023/09/17 12:16:04;;;;;;;;;;;;;;;22.27;30.41;98538.34;5055911;28;1800;-78
2023/09/17 12:18:29;;;;;;;;;;;;;;;22.33;30.50;98542.31;5056265;28;926;-77
2023/09/17 12:20:59;;;;;;;;;;;;;;;22.35;30.41;98528.47;5033625;28;1027;-78
2023/09/17 12:24:04;;;;;;;;;;;;;;;22.17;30.55;98533.72;5017831;28;1977;-77
2023/09/17 12:29:34;;;;;;;;;;;;;;;22.46;30.28;98542.44;4988607;28;1741;-78
2023/09/17 12:32:00;;;;;;;;;;;;;;;22.24;30.51;98539.25;4985942;28;1509;-78
2023/09/17 12:34:26;;;;;;;;;;;;;;;22.27;30.49;98544.03;4980466;28;1593;-78
2023/09/17 12:36:51;;;;;;;;;;;;;;;22.42;30.14;98538.06;4969850;28;1567;-77
2023/09/17 12:39:17;;;;;;;;;;;;;;;22.52;30.06;98548.38;4991220;28;1527;-78
2023/09/17 12:41:43;;;;;;;;;;;;;;;22.42;30.21;98533.19;4963476;28;1607;-77
2023/09/17 12:44:09;;;;;;;;;;;;;;;22.69;29.73;98535.84;4994466;28;2301;-77
2023/09/17 12:46:35;;;;;;;;;;;;;;;22.56;29.92;98538.56;4983758;28;1486;-78
2023/09/17 12:49:00;;;;;;;;;;;;;;;22.19;30.36;98534.09;4990675;28;1530;-78
2023/09/17 12:51:26;;;;;;;;;;;;;;;22.21;30.18;98523.09;4982074;28;1581;-77
2023/09/17 12:53:51;;;;;;;;;;;;;;;22.23;30.58;98520.66;4981705;28;1116;-77
2023/09/17 12:56:17;;;;;;;;;;;;;;;22.35;30.24;98522.81;4981261;28;960;-77
2023/09/17 12:58:42;;;;;;;;;;;;;;;22.23;30.41;98537.66;4965249;28;1093;-78